sensor_id;sensor_type;location;lat;lon;timestamp;P1;P2;P0
53698;PMS7003;39591;53.952;27.612;2022-11-15T00:04:45;5.8;3.9;3.1
53698;PMS7003;39591;53.952;27.612;2022-11-15T00:09:03;6;4.7;3.7
53698;PMS7003;39591;53.952;27.612;2022-11-15T00:14:45;7.1;5.2;4.1
53698;PMS7003;39591;53.952;27.612;2022-11-15T00:19:29;7.4;5.5;4.2
53698;PMS7003;39591;53.952;27.612;2022-11-15T00:24:33;6;4.4;3.7
53698;PMS7003;39591;53.952;27.612;2022-11-15T00:29:09;7.4;4.6;3.8
53698;PMS7003;39591;53.952;27.612;2022-11-15T00:33:57;7.6;5.5;4.3
53698;PMS7003;39591;53.952;27.612;2022-11-15T00:39:15;7.2;5.6;4.5
53698;PMS7003;39591;53.952;27.612;2022-11-15T00:44:45;8.2;6.6;5.5
53698;PMS7003;39591;53.952;27.612;2022-11-15T00:49:43;11.2;9.2;6.7
53698;PMS7003;39591;53.952;27.612;2022-11-15T00:54:47;10;8.4;6.5
53698;PMS7003;39591;53.952;27.612;2022-11-15T00:59:31;8.2;6.7;5.4
53698;PMS7003;39591;53.952;27.612;2022-11-15T01:04:29;8;6.2;5.2
53698;PMS7003;39591;53.952;27.612;2022-11-15T01:08:57;7.9;5.3;4.3
53698;PMS7003;39591;53.952;27.612;2022-11-15T01:14:33;5.8;4.7;3.9
53698;PMS7003;39591;53.952;27.612;2022-11-15T01:19:47;9.2;6.8;5.5
53698;PMS7003;39591;53.952;27.612;2022-11-15T01:24:15;9.3;7.2;6
53698;PMS7003;39591;53.952;27.612;2022-11-15T01:29:47;8.8;6.6;5.2
53698;PMS7003;39591;53.952;27.612;2022-11-15T01:34:33;8;6.4;5.4
53698;PMS7003;39591;53.952;27.612;2022-11-15T01:39:37;7.3;5.6;4.5
53698;PMS7003;39591;53.952;27.612;2022-11-15T01:43:57;8.5;6.8;5.3
53698;PMS7003;39591;53.952;27.612;2022-11-15T01:48:57;9.8;7.5;5.8
53698;PMS7003;39591;53.952;27.612;2022-11-15T01:54:18;10.1;7.1;5.5
53698;PMS7003;39591;53.952;27.612;2022-11-15T01:59:47;10.2;7.7;5.7
53698;PMS7003;39591;53.952;27.612;2022-11-15T02:04:37;9.5;6.5;5.5
53698;PMS7003;39591;53.952;27.612;2022-11-15T02:09:51;9.9;7.5;5.8
53698;PMS7003;39591;53.952;27.612;2022-11-15T02:13:57;11;9.6;7.4
53698;PMS7003;39591;53.952;27.612;2022-11-15T02:19:28;12.1;9.7;7.3
53698;PMS7003;39591;53.952;27.612;2022-11-15T02:24:21;13.6;10.3;7.9
53698;PMS7003;39591;53.952;27.612;2022-11-15T02:29:42;12.5;10.1;7.3
53698;PMS7003;39591;53.952;27.612;2022-11-15T02:34:52;10.6;8.8;6.5
53698;PMS7003;39591;53.952;27.612;2022-11-15T02:38:58;10.1;7.9;5.7
53698;PMS7003;39591;53.952;27.612;2022-11-15T02:44:51;12.2;9.5;6.8
53698;PMS7003;39591;53.952;27.612;2022-11-15T02:49:33;15.7;13.2;9.1
53698;PMS7003;39591;53.952;27.612;2022-11-15T02:54:37;14.8;12.2;9.1
53698;PMS7003;39591;53.952;27.612;2022-11-15T02:59:43;15.2;12.1;8.4
53698;PMS7003;39591;53.952;27.612;2022-11-15T03:03:59;14.6;11.4;8.5
53698;PMS7003;39591;53.952;27.612;2022-11-15T03:08:59;12.3;9.2;6.6
53698;PMS7003;39591;53.952;27.612;2022-11-15T03:14:51;11.3;9.3;6.5
53698;PMS7003;39591;53.952;27.612;2022-11-15T03:19:25;10.3;8;5.7
53698;PMS7003;39591;53.952;27.612;2022-11-15T03:24:52;11.1;8.9;7.1
53698;PMS7003;39591;53.952;27.612;2022-11-15T03:28:57;11.7;8.9;6.6
53698;PMS7003;39591;53.952;27.612;2022-11-15T03:34:07;7.3;6;4.6
53698;PMS7003;39591;53.952;27.612;2022-11-15T03:39:19;6.2;5;3.4
53698;PMS7003;39591;53.952;27.612;2022-11-15T03:44:39;4.5;3.2;2.5
53698;PMS7003;39591;53.952;27.612;2022-11-15T03:49:32;5.5;3.3;2.5
53698;PMS7003;39591;53.952;27.612;2022-11-15T03:53:57;8.2;5.5;4.1
53698;PMS7003;39591;53.952;27.612;2022-11-15T03:58:57;7.3;4.6;3.2
53698;PMS7003;39591;53.952;27.612;2022-11-15T04:04:49;3.6;2.4;1.9
53698;PMS7003;39591;53.952;27.612;2022-11-15T04:09:35;2.8;1.8;1.5
53698;PMS7003;39591;53.952;27.612;2022-11-15T04:14:19;2.4;1.5;1.1
53698;PMS7003;39591;53.952;27.612;2022-11-15T04:18:57;1.6;1;0.8
53698;PMS7003;39591;53.952;27.612;2022-11-15T04:23:57;1.4;0.8;0.5
53698;PMS7003;39591;53.952;27.612;2022-11-15T04:29:49;1.4;1.2;0.8
53698;PMS7003;39591;53.952;27.612;2022-11-15T04:34:21;1.4;0.7;0.3
53698;PMS7003;39591;53.952;27.612;2022-11-15T04:39:49;1.8;0.5;0.4
53698;PMS7003;39591;53.952;27.612;2022-11-15T04:44:07;1.3;0.8;0.6
53698;PMS7003;39591;53.952;27.612;2022-11-15T04:49:21;1.2;1.1;0.9
53698;PMS7003;39591;53.952;27.612;2022-11-15T04:54:05;1.1;0.7;0.5
53698;PMS7003;39591;53.952;27.612;2022-11-15T04:59:33;1.2;0.5;0.2
53698;PMS7003;39591;53.952;27.612;2022-11-15T05:04:31;1;0.7;0.5
53698;PMS7003;39591;53.952;27.612;2022-11-15T05:09:07;1.3;0.5;0.3
53698;PMS7003;39591;53.952;27.612;2022-11-15T05:14:07;2;1.5;1.3
53698;PMS7003;39591;53.952;27.612;2022-11-15T05:19:31;2.2;1.5;1.2
53698;PMS7003;39591;53.952;27.612;2022-11-15T05:24:21;2.3;1.8;1.5
53698;PMS7003;39591;53.952;27.612;2022-11-15T05:29:17;2.4;1.7;1.1
53698;PMS7003;39591;53.952;27.612;2022-11-15T05:34:11;2.3;1.6;1.3
53698;PMS7003;39591;53.952;27.612;2022-11-15T05:39:07;3.2;2.1;1.6
53698;PMS7003;39591;53.952;27.612;2022-11-15T05:44:49;7.4;5.2;4
53698;PMS7003;39591;53.952;27.612;2022-11-15T05:49:21;10.5;7.3;5.9
53698;PMS7003;39591;53.952;27.612;2022-11-15T05:54:47;9.3;7.1;5.6
53698;PMS7003;39591;53.952;27.612;2022-11-15T05:58:57;10.1;7.5;6.2
53698;PMS7003;39591;53.952;27.612;2022-11-15T06:04:07;9.4;7.3;5.7
53698;PMS7003;39591;53.952;27.612;2022-11-15T06:09:19;12.2;10.2;8
53698;PMS7003;39591;53.952;27.612;2022-11-15T06:14:35;11.3;8.8;6.9
53698;PMS7003;39591;53.952;27.612;2022-11-15T06:19:33;11.8;9;7.1
53698;PMS7003;39591;53.952;27.612;2022-11-15T06:24:07;13;11.1;8.7
53698;PMS7003;39591;53.952;27.612;2022-11-15T06:28:57;11.8;9.5;7.1
53698;PMS7003;39591;53.952;27.612;2022-11-15T06:34:45;11.4;9.7;7.6
53698;PMS7003;39591;53.952;27.612;2022-11-15T06:39:31;9;7.4;6.1
53698;PMS7003;39591;53.952;27.612;2022-11-15T06:44:31;9.3;7.7;6
53698;PMS7003;39591;53.952;27.612;2022-11-15T06:49:31;10.6;7.9;6.5
53698;PMS7003;39591;53.952;27.612;2022-11-15T06:53:57;9.3;7.7;5.8
53698;PMS7003;39591;53.952;27.612;2022-11-15T06:59:43;9.6;7.3;5.8
53698;PMS7003;39591;53.952;27.612;2022-11-15T07:04:11;7.2;5.6;4.4
53698;PMS7003;39591;53.952;27.612;2022-11-15T07:09:47;7;6;5
53698;PMS7003;39591;53.952;27.612;2022-11-15T07:13:57;8.4;6.8;5.5
53698;PMS7003;39591;53.952;27.612;2022-11-15T07:18:57;8.5;6.8;5.6
53698;PMS7003;39591;53.952;27.612;2022-11-15T07:24:17;8.2;6.7;5.5
53698;PMS7003;39591;53.952;27.612;2022-11-15T07:29:45;10.5;8.1;6.3
53698;PMS7003;39591;53.952;27.612;2022-11-15T07:34:31;10;7.2;5.8
53698;PMS7003;39591;53.952;27.612;2022-11-15T07:39:23;9.5;7.7;6.3
53698;PMS7003;39591;53.952;27.612;2022-11-15T07:44:17;10.9;8.8;6.7
53698;PMS7003;39591;53.952;27.612;2022-11-15T07:49:49;11.2;9.2;7.2
53698;PMS7003;39591;53.952;27.612;2022-11-15T07:54:35;12.2;10.3;8.5
53698;PMS7003;39591;53.952;27.612;2022-11-15T07:59:17;12.7;10.1;7.6
53698;PMS7003;39591;53.952;27.612;2022-11-15T08:03:57;10.6;8.4;6.7
53698;PMS7003;39591;53.952;27.612;2022-11-15T08:09:09;9.2;7.7;6.1
53698;PMS7003;39591;53.952;27.612;2022-11-15T08:14:43;8.2;6.8;5.6
53698;PMS7003;39591;53.952;27.612;2022-11-15T08:19:19;8.9;6.7;5.7
53698;PMS7003;39591;53.952;27.612;2022-11-15T08:24:45;9.9;7.9;6.3
53698;PMS7003;39591;53.952;27.612;2022-11-15T08:28:57;8.5;7;5.4
53698;PMS7003;39591;53.952;27.612;2022-11-15T08:34:07;8.4;6.5;5.2
53698;PMS7003;39591;53.952;27.612;2022-11-15T08:39:17;7.9;6.1;4.7
53698;PMS7003;39591;53.952;27.612;2022-11-15T08:44:33;6.9;5.5;4.8
53698;PMS7003;39591;53.952;27.612;2022-11-15T08:49:31;8.5;6.4;5.3
53698;PMS7003;39591;53.952;27.612;2022-11-15T08:54:07;8.6;6.6;5.5
53698;PMS7003;39591;53.952;27.612;2022-11-15T08:59:07;8.7;7.1;5.4
53698;PMS7003;39591;53.952;27.612;2022-11-15T09:04:27;9.8;7.5;6
53698;PMS7003;39591;53.952;27.612;2022-11-15T09:09:31;11;7.7;6.4
53698;PMS7003;39591;53.952;27.612;2022-11-15T09:14:10;11.1;9.3;7.5
53698;PMS7003;39591;53.952;27.612;2022-11-15T09:18:57;13.7;10.5;8.2
53698;PMS7003;39591;53.952;27.612;2022-11-15T09:24:47;13.2;11.3;9
53698;PMS7003;39591;53.952;27.612;2022-11-15T09:29:45;11;9.5;7.5
53698;PMS7003;39591;53.952;27.612;2022-11-15T09:34:19;9.9;8.2;6.4
53698;PMS7003;39591;53.952;27.612;2022-11-15T09:39:45;8.5;7;6
53698;PMS7003;39591;53.952;27.612;2022-11-15T09:44:11;8.6;6.8;5.4
53698;PMS7003;39591;53.952;27.612;2022-11-15T09:49:07;8.6;6;4.8
53698;PMS7003;39591;53.952;27.612;2022-11-15T09:53:59;8.3;6.3;5.4
53698;PMS7003;39591;53.952;27.612;2022-11-15T09:59:39;8.1;6.3;5
53698;PMS7003;39591;53.952;27.612;2022-11-15T10:04:31;8.5;6.2;5.1
53698;PMS7003;39591;53.952;27.612;2022-11-15T10:08:58;8.9;6.5;5.2
53698;PMS7003;39591;53.952;27.612;2022-11-15T10:13:57;8.7;6.9;5.6
53698;PMS7003;39591;53.952;27.612;2022-11-15T10:19:47;7.7;6.5;5.4
53698;PMS7003;39591;53.952;27.612;2022-11-15T10:24:33;8.8;6.6;5.2
53698;PMS7003;39591;53.952;27.612;2022-11-15T10:29:18;9.3;7.3;6
53698;PMS7003;39591;53.952;27.612;2022-11-15T10:34:10;8.8;7.2;6.2
53698;PMS7003;39591;53.952;27.612;2022-11-15T10:39:10;9.8;8;6.4
53698;PMS7003;39591;53.952;27.612;2022-11-15T10:44:47;10.6;8.2;6.6
53698;PMS7003;39591;53.952;27.612;2022-11-15T10:49:04;12.2;10;7.6
53698;PMS7003;39591;53.952;27.612;2022-11-15T10:54:47;11.5;8.9;7.1
53698;PMS7003;39591;53.952;27.612;2022-11-15T10:59:13;12.3;9.7;7.3
53698;PMS7003;39591;53.952;27.612;2022-11-15T11:03:58;10.5;8.3;6.6
53698;PMS7003;39591;53.952;27.612;2022-11-15T11:09:22;9.2;7;5.7
53698;PMS7003;39591;53.952;27.612;2022-11-15T11:14:34;10.2;7.7;6.4
53698;PMS7003;39591;53.952;27.612;2022-11-15T11:19:50;10.6;8;6.4
53698;PMS7003;39591;53.952;27.612;2022-11-15T11:23:58;11.1;8.9;7
53698;PMS7003;39591;53.952;27.612;2022-11-15T11:28:59;9.5;7.3;5.8
53698;PMS7003;39591;53.952;27.612;2022-11-15T11:34:12;10.9;8.4;7
53698;PMS7003;39591;53.952;27.612;2022-11-15T11:39:36;10.2;8.1;6.8
53698;PMS7003;39591;53.952;27.612;2022-11-15T11:44:34;9;7.6;5.9
53698;PMS7003;39591;53.952;27.612;2022-11-15T11:49:34;10.3;8.3;6.6
53698;PMS7003;39591;53.952;27.612;2022-11-15T11:54:10;9.4;7.6;5.7
53698;PMS7003;39591;53.952;27.612;2022-11-15T11:59:48;9.8;7.5;5.7
53698;PMS7003;39591;53.952;27.612;2022-11-15T12:04:12;10.4;8.8;7
53698;PMS7003;39591;53.952;27.612;2022-11-15T12:09:12;8.9;7.4;5.9
53698;PMS7003;39591;53.952;27.612;2022-11-15T12:14:36;11.2;8.3;6.8
53698;PMS7003;39591;53.952;27.612;2022-11-15T12:18:58;8.6;6.7;5.6
53698;PMS7003;39591;53.952;27.612;2022-11-15T12:24:20;10.2;8.6;6.8
53698;PMS7003;39591;53.952;27.612;2022-11-15T12:29:34;13.3;11.4;9.1
53698;PMS7003;39591;53.952;27.612;2022-11-15T12:34:38;9.5;7;4.9
53698;PMS7003;39591;53.952;27.612;2022-11-15T12:40:16;12.7;10.3;8.1
53698;PMS7003;39591;53.952;27.612;2022-11-15T12:43:57;10.4;7.6;6.2
53698;PMS7003;39591;53.952;27.612;2022-11-15T12:49:50;10.4;6.7;4.9
53698;PMS7003;39591;53.952;27.612;2022-11-15T12:54:50;9.4;8;6.3
53698;PMS7003;39591;53.952;27.612;2022-11-15T12:59:07;10.5;8.1;6.4
53698;PMS7003;39591;53.952;27.612;2022-11-15T13:04:29;13.4;10.7;8.2
53698;PMS7003;39591;53.952;27.612;2022-11-15T13:10:28;7.9;6.3;5.3
53698;PMS7003;39591;53.952;27.612;2022-11-15T13:14:48;7.9;6.1;5.1
53698;PMS7003;39591;53.952;27.612;2022-11-15T13:19:21;8.1;6.5;5.2
53698;PMS7003;39591;53.952;27.612;2022-11-15T13:24:37;8.8;6.5;5.4
53698;PMS7003;39591;53.952;27.612;2022-11-15T13:29:18;8.3;6.5;5.5
53698;PMS7003;39591;53.952;27.612;2022-11-15T13:33:59;7.8;6;5
53698;PMS7003;39591;53.952;27.612;2022-11-15T13:38:59;8.2;6.4;5.3
53698;PMS7003;39591;53.952;27.612;2022-11-15T13:44:35;8.6;6.8;5.4
53698;PMS7003;39591;53.952;27.612;2022-11-15T13:49:33;8.7;6.8;5.2
53698;PMS7003;39591;53.952;27.612;2022-11-15T13:54:36;8.3;5.7;4.7
53698;PMS7003;39591;53.952;27.612;2022-11-15T13:59:08;7.8;5.7;4.7
53698;PMS7003;39591;53.952;27.612;2022-11-15T14:04:50;8.5;7;5.6
53698;PMS7003;39591;53.952;27.612;2022-11-15T14:09:49;7.4;5.6;4.2
53698;PMS7003;39591;53.952;27.612;2022-11-15T14:14:11;15.2;12;9
53698;PMS7003;39591;53.952;27.612;2022-11-15T14:19:34;11.5;9.6;7.6
53698;PMS7003;39591;53.952;27.612;2022-11-15T14:24:13;15.8;13;9.8
53698;PMS7003;39591;53.952;27.612;2022-11-15T14:29:49;11.1;7.7;5.8
53698;PMS7003;39591;53.952;27.612;2022-11-15T14:34:21;10.6;8.8;6.7
53698;PMS7003;39591;53.952;27.612;2022-11-15T14:39:35;9.3;7.6;6.1
53698;PMS7003;39591;53.952;27.612;2022-11-15T14:44:19;10.4;7.8;6.3
53698;PMS7003;39591;53.952;27.612;2022-11-15T14:49:07;8.7;6.7;5.2
53698;PMS7003;39591;53.952;27.612;2022-11-15T14:54:19;9.2;7.6;6
53698;PMS7003;39591;53.952;27.612;2022-11-15T14:59:33;7.8;6.2;4.9
53698;PMS7003;39591;53.952;27.612;2022-11-15T15:04:31;5.2;4.8;4
53698;PMS7003;39591;53.952;27.612;2022-11-15T15:09:35;5.7;4.6;3.8
53698;PMS7003;39591;53.952;27.612;2022-11-15T15:13:57;6.8;5.3;4.1
53698;PMS7003;39591;53.952;27.612;2022-11-15T15:19:47;12.7;9.8;7.5
53698;PMS7003;39591;53.952;27.612;2022-11-15T15:24:47;7.9;6.7;5.5
53698;PMS7003;39591;53.952;27.612;2022-11-15T15:34:31;8.9;7;5.9
53698;PMS7003;39591;53.952;27.612;2022-11-15T15:38:57;5.5;5.3;4.3
53698;PMS7003;39591;53.952;27.612;2022-11-15T15:44:49;7;5.2;3.8
53698;PMS7003;39591;53.952;27.612;2022-11-15T15:48:58;7.2;5.5;4.4
53698;PMS7003;39591;53.952;27.612;2022-11-15T15:54:47;12;9.5;7.1
53698;PMS7003;39591;53.952;27.612;2022-11-15T15:59:17;7.7;6.1;4.8
53698;PMS7003;39591;53.952;27.612;2022-11-15T16:04:07;7.9;6.1;4.7
53698;PMS7003;39591;53.952;27.612;2022-11-15T16:09:29;7.4;5.5;4.2
53698;PMS7003;39591;53.952;27.612;2022-11-15T16:14:35;6.9;5.5;4.6
53698;PMS7003;39591;53.952;27.612;2022-11-15T16:19:49;6.3;5.3;4.5
53698;PMS7003;39591;53.952;27.612;2022-11-15T16:24:49;10.5;8.2;6.2
53698;PMS7003;39591;53.952;27.612;2022-11-15T16:29:07;8.2;6.5;5.2
53698;PMS7003;39591;53.952;27.612;2022-11-15T16:34:35;7;6.3;5.2
53698;PMS7003;39591;53.952;27.612;2022-11-15T16:39:21;6.9;6.3;5
53698;PMS7003;39591;53.952;27.612;2022-11-15T16:44:35;7.5;6;4.4
53698;PMS7003;39591;53.952;27.612;2022-11-15T16:49:35;7.9;7.1;5.3
53698;PMS7003;39591;53.952;27.612;2022-11-15T16:53:57;6.1;4.9;4.1
53698;PMS7003;39591;53.952;27.612;2022-11-15T16:59:17;7.3;5.8;4.8
53698;PMS7003;39591;53.952;27.612;2022-11-15T17:04:49;6.8;5;3.8
53698;PMS7003;39591;53.952;27.612;2022-11-15T17:09:22;8.6;5.6;4.5
53698;PMS7003;39591;53.952;27.612;2022-11-15T17:14:49;8.6;5.6;4.5
53698;PMS7003;39591;53.952;27.612;2022-11-15T17:18:57;7.7;5.8;4.8
53698;PMS7003;39591;53.952;27.612;2022-11-15T17:29:35;7.7;5.8;4.8
53698;PMS7003;39591;53.952;27.612;2022-11-15T17:34:49;3.9;3.2;2.3
53698;PMS7003;39591;53.952;27.612;2022-11-15T17:44:49;3.9;3.2;2.3
53698;PMS7003;39591;53.952;27.612;2022-11-15T17:49:23;6.6;5.3;4.3
53698;PMS7003;39591;53.952;27.612;2022-11-15T17:54:22;3.2;2.7;2.5
53698;PMS7003;39591;53.952;27.612;2022-11-15T18:09:07;7.5;5.4;4
53698;PMS7003;39591;53.952;27.612;2022-11-15T18:14:19;6.1;4.8;3.4
53698;PMS7003;39591;53.952;27.612;2022-11-15T18:19:49;3.7;3.5;3
53698;PMS7003;39591;53.952;27.612;2022-11-15T18:24:21;6.6;5.3;4
53698;PMS7003;39591;53.952;27.612;2022-11-15T18:29:47;8.2;6.1;4.9
53698;PMS7003;39591;53.952;27.612;2022-11-15T18:33:58;9.1;5.9;4.7
53698;PMS7003;39591;53.952;27.612;2022-11-15T18:39:31;7.4;5.6;5.1
53698;PMS7003;39591;53.952;27.612;2022-11-15T18:44:35;7.8;6.5;5.1
53698;PMS7003;39591;53.952;27.612;2022-11-15T18:49:49;8;6.9;5.3
53698;PMS7003;39591;53.952;27.612;2022-11-15T18:54:49;8;6.9;5.3
53698;PMS7003;39591;53.952;27.612;2022-11-15T18:59:07;7.9;6.4;5.4
53698;PMS7003;39591;53.952;27.612;2022-11-15T19:04:33;10;7.8;6.1
53698;PMS7003;39591;53.952;27.612;2022-11-15T19:09:21;8.9;6.5;4.2
53698;PMS7003;39591;53.952;27.612;2022-11-15T19:14:49;10.4;8.1;6.4
53698;PMS7003;39591;53.952;27.612;2022-11-15T19:19:21;11;9.2;7.2
53698;PMS7003;39591;53.952;27.612;2022-11-15T19:23:57;11.7;9.2;7
53698;PMS7003;39591;53.952;27.612;2022-11-15T19:29:31;12;8.7;6.9
53698;PMS7003;39591;53.952;27.612;2022-11-15T19:34:49;10.8;8.9;6.5
53698;PMS7003;39591;53.952;27.612;2022-11-15T19:39:21;11.2;8.9;7.1
53698;PMS7003;39591;53.952;27.612;2022-11-15T19:44:49;10.8;8.4;6.3
53698;PMS7003;39591;53.952;27.612;2022-11-15T19:49:07;13.6;11.7;8.5
53698;PMS7003;39591;53.952;27.612;2022-11-15T19:54:31;13.6;10.8;8.2
53698;PMS7003;39591;53.952;27.612;2022-11-15T19:59:33;9.9;7.5;5.7
53698;PMS7003;39591;53.952;27.612;2022-11-15T20:04:49;10.1;7.5;5.6
53698;PMS7003;39591;53.952;27.612;2022-11-15T20:09:47;9.7;7.6;5.9
53698;PMS7003;39591;53.952;27.612;2022-11-15T20:13:57;9.7;7.5;5.7
53698;PMS7003;39591;53.952;27.612;2022-11-15T20:19:33;11.2;8.6;6.4
53698;PMS7003;39591;53.952;27.612;2022-11-15T20:24:31;9.9;6.9;5.1
53698;PMS7003;39591;53.952;27.612;2022-11-15T20:29:35;10.5;8;6.2
53698;PMS7003;39591;53.952;27.612;2022-11-15T20:34:19;9.2;7.1;5.5
53698;PMS7003;39591;53.952;27.612;2022-11-15T20:38:57;8.9;7.5;5.9
53698;PMS7003;39591;53.952;27.612;2022-11-15T20:44:17;9.8;7.8;6.1
53698;PMS7003;39591;53.952;27.612;2022-11-15T20:49:47;8.6;6.7;5.3
53698;PMS7003;39591;53.952;27.612;2022-11-15T20:54:21;7.7;5.8;4.5
53698;PMS7003;39591;53.952;27.612;2022-11-15T20:59:47;7.3;6;4.8
53698;PMS7003;39591;53.952;27.612;2022-11-15T21:04:33;10.2;7.9;6.1
53698;PMS7003;39591;53.952;27.612;2022-11-15T21:09:33;8;6.6;5.2
53698;PMS7003;39591;53.952;27.612;2022-11-15T21:14:17;9.5;7.4;5.6
53698;PMS7003;39591;53.952;27.612;2022-11-15T21:19:49;9.3;6.8;5.2
53698;PMS7003;39591;53.952;27.612;2022-11-15T21:24:49;9.9;7.8;6.1
53698;PMS7003;39591;53.952;27.612;2022-11-15T21:28:57;8.2;6.3;5
53698;PMS7003;39591;53.952;27.612;2022-11-15T21:34:47;6.6;5.7;4.3
53698;PMS7003;39591;53.952;27.612;2022-11-15T21:39:31;6.6;5.4;3.9
53698;PMS7003;39591;53.952;27.612;2022-11-15T21:44:19;5.6;4.7;3.6
53698;PMS7003;39591;53.952;27.612;2022-11-15T21:49:19;5.6;4.6;3.3
53698;PMS7003;39591;53.952;27.612;2022-11-15T21:53:57;4.8;3.9;2.9
53698;PMS7003;39591;53.952;27.612;2022-11-15T21:59:15;4.7;3.4;2.6
53698;PMS7003;39591;53.952;27.612;2022-11-15T22:04:41;3.9;3.3;2.5
53698;PMS7003;39591;53.952;27.612;2022-11-15T22:09:17;4.7;3.3;2.5
53698;PMS7003;39591;53.952;27.612;2022-11-15T22:14:43;4.7;3.4;2.9
53698;PMS7003;39591;53.952;27.612;2022-11-15T22:18:57;4.3;3.4;2.6
53698;PMS7003;39591;53.952;27.612;2022-11-15T22:24:27;4;2.9;2.3
53698;PMS7003;39591;53.952;27.612;2022-11-15T22:29:13;4.3;3.2;2.4
53698;PMS7003;39591;53.952;27.612;2022-11-15T22:34:25;4.9;3.3;2.8
53698;PMS7003;39591;53.952;27.612;2022-11-15T22:39:45;3.8;2.6;2.1
53698;PMS7003;39591;53.952;27.612;2022-11-15T22:43:57;3.7;2.2;1.9
53698;PMS7003;39591;53.952;27.612;2022-11-15T22:49:45;4.1;2.6;1.8
53698;PMS7003;39591;53.952;27.612;2022-11-15T22:54:27;3.1;2.4;1.8
53698;PMS7003;39591;53.952;27.612;2022-11-15T22:59:31;4.4;2.9;2.3
53698;PMS7003;39591;53.952;27.612;2022-11-15T23:04:15;4.5;3.2;2.7
53698;PMS7003;39591;53.952;27.612;2022-11-15T23:09:17;4.1;3.3;2.6
53698;PMS7003;39591;53.952;27.612;2022-11-15T23:13:57;5.2;3.8;2.7
53698;PMS7003;39591;53.952;27.612;2022-11-15T23:19:45;5.3;3.8;3.1
53698;PMS7003;39591;53.952;27.612;2022-11-15T23:24:18;4.8;3.3;2.6
53698;PMS7003;39591;53.952;27.612;2022-11-15T23:29:43;4.4;3.7;2.9
53698;PMS7003;39591;53.952;27.612;2022-11-15T23:34:03;5.6;4.2;3.1
53698;PMS7003;39591;53.952;27.612;2022-11-15T23:39:28;3.9;2.9;2.2
53698;PMS7003;39591;53.952;27.612;2022-11-15T23:44:03;4.4;3.4;2.7
53698;PMS7003;39591;53.952;27.612;2022-11-15T23:49:45;3.9;3.1;2.5
53698;PMS7003;39591;53.952;27.612;2022-11-15T23:54:45;5.7;3.7;3
53698;PMS7003;39591;53.952;27.612;2022-11-15T23:59:13;4.5;2.9;2.4
